KAMG/AMG METAR and TAF weather

Enter ICAO airport designator
Station Type Date Time Source
KAMG METAR 2019/06/26 21:53 UTC NOAA

KAMG 262153Z AUTO VRB03KT 10SM CLR 32/18 A3009 RMK AO2 SLP188 T03220183


Station Type Date Time Source
KAMG Decoded METAR 2019/06/26 21:53 UTC NOAA

ALMA BACON COUNTY AIRPORT, GA, United States (KAMG) 31-32N 82-30W 59M
Jun 26, 2019 - 05:53 PM EDT / 2019.06.26 2153 UTC
Wind: Variable at 3 MPH (3 KT):0
Visibility: 10 mile(s):0
Sky conditions: clear
Temperature: 90.0 F (32.2 C)
Dew Point: 64.9 F (18.3 C)
Relative Humidity: 43%
Pressure (altimeter): 30.09 in. Hg (1018 hPa)
ob: KAMG 262153Z AUTO VRB03KT 10SM CLR 32/18 A3009 RMK AO2 SLP188 T03220183
cycle: 22

Station Type Date Time Source
KAMG TAF UTC NOAA

Error!

Example: see airport list